Venice, Italy

9:26 AM CEST on September 25, 2016 (GMT +0200)
Venezia | | Change Station

Elev 14 ft 45.53 °N, 12.31 °E | Updated 2 seconds ago

Clear
Clear
61.7 °F
Feels Like 61.7 °F
N
0.0
Wind Variable Wind from NE
Gusts 1.1 mph

Today
High -- | Low -- °F
--% Chance of Precip.
Yesterday
High -- | Low -- °F
Precip. -- in
Pressure 30.15 in
Visibility -9999.0 miles
Clouds
Dew Point 57 °F
Humidity 85%
Rainfall 0.00 in
Snow Depth Not available.
7:01 AM 7:01 PM
Waning Crescent, 30% visible
METAR LIPZ 250720Z 03007KT CAVOK 17/12 Q1021 NOSIG
Pressure 30.15 in
Visibility -9999.0 miles
Clouds
Dew Point 57 °F
Humidity 85%
Rainfall 0.00 in
Snow Depth Not available.
7:01 AM 7:01 PM
Waning Crescent, 30% visible
METAR LIPZ 250720Z 03007KT CAVOK 17/12 Q1021 NOSIG

10-Day Weather Forecast

×

Almanac

Astronomy

Sep. 25, 2016 Rise Set
Actual Time
Civil Twilight
Nautical Twilight
Astronomical Twilight
Moon
Length of Visible Light
Length of Day
Tomorrow will be .
, % of the Moon is Illuminated

Today's Extremes

Country Highs Country Lows

Community

WunderPhotos

Upload Photos

1,941,554 photos uploaded!

WunderBlog® & News

Nearby

Air Quality

  Air Quality AQ Index Pollutant
Not available.

Snow Depth

Station Depth Elevation

Earthquake Activity

City Distance Mag. Time & Date
Minimum magnitude displayed is 2.5.

Coastal Water Temperatures

Place Temperature

Stations

Nearby Weather Stations

Station Location Temp. Windchill Dew Point Humidity Wind Precip. Elev Updated Type